sensor_id;sensor_type;location;lat;lon;timestamp;P1;durP1;ratioP1;P2;durP2;ratioP2
74894;SDS011;63447;49.446;8.666;2023-07-13T00:00:33;3.95;;;1.05;;
74894;SDS011;63447;49.446;8.666;2023-07-13T00:02:58;4.13;;;1.10;;
74894;SDS011;63447;49.446;8.666;2023-07-13T00:05:26;5.50;;;1.17;;
74894;SDS011;63447;49.446;8.666;2023-07-13T00:07:52;6.35;;;1.20;;
74894;SDS011;63447;49.446;8.666;2023-07-13T00:10:19;5.22;;;1.30;;
74894;SDS011;63447;49.446;8.666;2023-07-13T00:12:44;3.75;;;1.20;;
74894;SDS011;63447;49.446;8.666;2023-07-13T00:15:15;4.18;;;1.27;;
74894;SDS011;63447;49.446;8.666;2023-07-13T00:17:50;4.63;;;1.13;;
74894;SDS011;63447;49.446;8.666;2023-07-13T00:20:24;5.32;;;1.20;;
74894;SDS011;63447;49.446;8.666;2023-07-13T00:22:52;5.82;;;1.13;;
74894;SDS011;63447;49.446;8.666;2023-07-13T00:25:19;4.03;;;1.10;;
74894;SDS011;63447;49.446;8.666;2023-07-13T00:27:46;4.80;;;1.25;;
74894;SDS011;63447;49.446;8.666;2023-07-13T00:30:14;3.58;;;1.20;;
74894;SDS011;63447;49.446;8.666;2023-07-13T00:32:39;3.80;;;1.40;;
74894;SDS011;63447;49.446;8.666;2023-07-13T00:35:06;9.20;;;1.80;;
74894;SDS011;63447;49.446;8.666;2023-07-13T00:37:32;4.50;;;1.30;;
74894;SDS011;63447;49.446;8.666;2023-07-13T00:39:58;5.45;;;1.40;;
74894;SDS011;63447;49.446;8.666;2023-07-13T00:42:26;5.50;;;1.23;;
74894;SDS011;63447;49.446;8.666;2023-07-13T00:45:01;5.75;;;1.42;;
74894;SDS011;63447;49.446;8.666;2023-07-13T00:47:35;3.38;;;1.20;;
74894;SDS011;63447;49.446;8.666;2023-07-13T00:50:00;4.40;;;1.47;;
74894;SDS011;63447;49.446;8.666;2023-07-13T00:52:27;4.72;;;1.38;;
74894;SDS011;63447;49.446;8.666;2023-07-13T00:54:55;4.50;;;1.60;;
74894;SDS011;63447;49.446;8.666;2023-07-13T00:57:21;5.50;;;1.40;;
74894;SDS011;63447;49.446;8.666;2023-07-13T00:59:48;4.43;;;1.38;;
74894;SDS011;63447;49.446;8.666;2023-07-13T01:02:17;4.43;;;1.67;;
74894;SDS011;63447;49.446;8.666;2023-07-13T01:04:46;5.03;;;1.67;;
74894;SDS011;63447;49.446;8.666;2023-07-13T01:07:14;5.32;;;1.70;;
74894;SDS011;63447;49.446;8.666;2023-07-13T01:09:47;3.63;;;1.40;;
74894;SDS011;63447;49.446;8.666;2023-07-13T01:12:13;4.47;;;1.45;;
74894;SDS011;63447;49.446;8.666;2023-07-13T01:14:41;4.68;;;1.50;;
74894;SDS011;63447;49.446;8.666;2023-07-13T01:17:09;5.32;;;1.60;;
74894;SDS011;63447;49.446;8.666;2023-07-13T01:19:39;5.68;;;1.60;;
74894;SDS011;63447;49.446;8.666;2023-07-13T01:22:08;4.78;;;1.60;;
74894;SDS011;63447;49.446;8.666;2023-07-13T01:24:39;6.20;;;1.48;;
74894;SDS011;63447;49.446;8.666;2023-07-13T01:27:08;5.43;;;1.45;;
74894;SDS011;63447;49.446;8.666;2023-07-13T01:29:36;3.95;;;1.50;;
74894;SDS011;63447;49.446;8.666;2023-07-13T01:32:09;4.75;;;1.55;;
74894;SDS011;63447;49.446;8.666;2023-07-13T01:34:38;4.70;;;1.58;;
74894;SDS011;63447;49.446;8.666;2023-07-13T01:37:07;6.18;;;1.70;;
74894;SDS011;63447;49.446;8.666;2023-07-13T01:39:36;4.43;;;1.45;;
74894;SDS011;63447;49.446;8.666;2023-07-13T01:42:02;4.75;;;1.42;;
74894;SDS011;63447;49.446;8.666;2023-07-13T01:44:33;5.50;;;1.30;;
74894;SDS011;63447;49.446;8.666;2023-07-13T01:47:01;5.88;;;1.60;;
74894;SDS011;63447;49.446;8.666;2023-07-13T01:49:27;4.60;;;1.60;;
74894;SDS011;63447;49.446;8.666;2023-07-13T01:51:54;6.40;;;1.80;;
74894;SDS011;63447;49.446;8.666;2023-07-13T01:54:19;5.10;;;1.63;;
74894;SDS011;63447;49.446;8.666;2023-07-13T01:56:45;4.13;;;1.63;;
74894;SDS011;63447;49.446;8.666;2023-07-13T01:59:13;4.43;;;1.70;;
74894;SDS011;63447;49.446;8.666;2023-07-13T02:01:38;5.22;;;1.83;;
74894;SDS011;63447;49.446;8.666;2023-07-13T02:04:04;7.28;;;1.92;;
74894;SDS011;63447;49.446;8.666;2023-07-13T02:06:29;4.93;;;2.00;;
74894;SDS011;63447;49.446;8.666;2023-07-13T02:08:54;3.83;;;1.47;;
74894;SDS011;63447;49.446;8.666;2023-07-13T02:11:22;4.13;;;1.63;;
74894;SDS011;63447;49.446;8.666;2023-07-13T02:13:57;5.30;;;1.98;;
74894;SDS011;63447;49.446;8.666;2023-07-13T02:16:23;4.93;;;1.90;;
74894;SDS011;63447;49.446;8.666;2023-07-13T02:18:48;5.80;;;1.60;;
74894;SDS011;63447;49.446;8.666;2023-07-13T02:21:16;7.00;;;1.63;;
74894;SDS011;63447;49.446;8.666;2023-07-13T02:23:41;5.83;;;1.80;;
74894;SDS011;63447;49.446;8.666;2023-07-13T02:26:09;5.40;;;1.70;;
74894;SDS011;63447;49.446;8.666;2023-07-13T02:28:35;3.50;;;1.30;;
74894;SDS011;63447;49.446;8.666;2023-07-13T02:31:04;5.43;;;1.50;;
74894;SDS011;63447;49.446;8.666;2023-07-13T02:33:38;4.18;;;1.60;;
74894;SDS011;63447;49.446;8.666;2023-07-13T02:36:07;5.47;;;1.90;;
74894;SDS011;63447;49.446;8.666;2023-07-13T02:38:33;4.03;;;1.70;;
74894;SDS011;63447;49.446;8.666;2023-07-13T02:41:02;4.53;;;1.65;;
74894;SDS011;63447;49.446;8.666;2023-07-13T02:43:32;4.60;;;1.63;;
74894;SDS011;63447;49.446;8.666;2023-07-13T02:45:58;5.97;;;1.95;;
74894;SDS011;63447;49.446;8.666;2023-07-13T02:48:29;6.50;;;1.90;;
74894;SDS011;63447;49.446;8.666;2023-07-13T02:50:54;4.32;;;1.63;;
74894;SDS011;63447;49.446;8.666;2023-07-13T02:53:22;5.10;;;2.08;;
74894;SDS011;63447;49.446;8.666;2023-07-13T02:55:47;4.20;;;1.77;;
74894;SDS011;63447;49.446;8.666;2023-07-13T02:58:13;5.20;;;1.93;;
74894;SDS011;63447;49.446;8.666;2023-07-13T03:00:46;5.15;;;1.88;;
74894;SDS011;63447;49.446;8.666;2023-07-13T03:03:13;4.95;;;2.03;;
74894;SDS011;63447;49.446;8.666;2023-07-13T03:05:41;5.00;;;1.80;;
74894;SDS011;63447;49.446;8.666;2023-07-13T03:08:15;5.35;;;1.90;;
74894;SDS011;63447;49.446;8.666;2023-07-13T03:10:46;7.88;;;2.10;;
74894;SDS011;63447;49.446;8.666;2023-07-13T03:13:11;5.13;;;1.80;;
74894;SDS011;63447;49.446;8.666;2023-07-13T03:15:39;4.53;;;1.83;;
74894;SDS011;63447;49.446;8.666;2023-07-13T03:18:04;4.78;;;1.95;;
74894;SDS011;63447;49.446;8.666;2023-07-13T03:20:32;4.47;;;1.77;;
74894;SDS011;63447;49.446;8.666;2023-07-13T03:23:03;4.88;;;2.05;;
74894;SDS011;63447;49.446;8.666;2023-07-13T03:25:29;5.40;;;1.80;;
74894;SDS011;63447;49.446;8.666;2023-07-13T03:27:54;4.28;;;1.83;;
74894;SDS011;63447;49.446;8.666;2023-07-13T03:30:20;5.83;;;1.80;;
74894;SDS011;63447;49.446;8.666;2023-07-13T03:32:45;4.83;;;1.70;;
74894;SDS011;63447;49.446;8.666;2023-07-13T03:35:18;4.60;;;1.67;;
74894;SDS011;63447;49.446;8.666;2023-07-13T03:37:48;5.93;;;1.90;;
74894;SDS011;63447;49.446;8.666;2023-07-13T03:40:18;5.45;;;1.70;;
74894;SDS011;63447;49.446;8.666;2023-07-13T03:42:46;6.70;;;1.90;;
74894;SDS011;63447;49.446;8.666;2023-07-13T03:45:11;4.22;;;1.58;;
74894;SDS011;63447;49.446;8.666;2023-07-13T03:47:37;4.93;;;2.20;;
74894;SDS011;63447;49.446;8.666;2023-07-13T03:50:02;6.38;;;2.10;;
74894;SDS011;63447;49.446;8.666;2023-07-13T03:52:28;5.53;;;1.98;;
74894;SDS011;63447;49.446;8.666;2023-07-13T03:54:54;4.70;;;1.65;;
74894;SDS011;63447;49.446;8.666;2023-07-13T03:57:21;5.93;;;1.80;;
74894;SDS011;63447;49.446;8.666;2023-07-13T03:59:47;5.80;;;1.95;;
74894;SDS011;63447;49.446;8.666;2023-07-13T04:02:12;5.00;;;1.67;;
74894;SDS011;63447;49.446;8.666;2023-07-13T04:04:37;4.53;;;2.00;;
74894;SDS011;63447;49.446;8.666;2023-07-13T04:07:05;8.18;;;2.40;;
74894;SDS011;63447;49.446;8.666;2023-07-13T04:09:32;5.47;;;2.22;;
74894;SDS011;63447;49.446;8.666;2023-07-13T04:11:57;4.73;;;2.10;;
74894;SDS011;63447;49.446;8.666;2023-07-13T04:14:22;4.13;;;1.60;;
74894;SDS011;63447;49.446;8.666;2023-07-13T04:16:48;5.50;;;1.73;;
74894;SDS011;63447;49.446;8.666;2023-07-13T04:19:13;5.47;;;2.00;;
74894;SDS011;63447;49.446;8.666;2023-07-13T04:21:41;5.45;;;1.70;;
74894;SDS011;63447;49.446;8.666;2023-07-13T04:24:08;8.65;;;2.00;;
74894;SDS011;63447;49.446;8.666;2023-07-13T04:26:34;6.35;;;2.10;;
74894;SDS011;63447;49.446;8.666;2023-07-13T04:29:01;6.68;;;1.90;;
74894;SDS011;63447;49.446;8.666;2023-07-13T04:31:29;5.80;;;1.85;;
74894;SDS011;63447;49.446;8.666;2023-07-13T04:33:57;6.13;;;1.95;;
74894;SDS011;63447;49.446;8.666;2023-07-13T04:36:24;8.43;;;2.10;;
74894;SDS011;63447;49.446;8.666;2023-07-13T04:38:53;7.53;;;2.30;;
74894;SDS011;63447;49.446;8.666;2023-07-13T04:41:20;5.85;;;2.00;;
74894;SDS011;63447;49.446;8.666;2023-07-13T04:43:46;6.15;;;2.40;;
74894;SDS011;63447;49.446;8.666;2023-07-13T04:46:16;5.63;;;1.73;;
74894;SDS011;63447;49.446;8.666;2023-07-13T04:48:45;5.00;;;2.08;;
74894;SDS011;63447;49.446;8.666;2023-07-13T04:51:10;5.35;;;1.98;;
74894;SDS011;63447;49.446;8.666;2023-07-13T04:53:36;6.50;;;2.22;;
74894;SDS011;63447;49.446;8.666;2023-07-13T04:56:04;5.97;;;2.03;;
74894;SDS011;63447;49.446;8.666;2023-07-13T04:58:33;5.57;;;1.92;;
74894;SDS011;63447;49.446;8.666;2023-07-13T05:00:59;5.40;;;1.83;;
74894;SDS011;63447;49.446;8.666;2023-07-13T05:03:29;6.35;;;1.77;;
74894;SDS011;63447;49.446;8.666;2023-07-13T05:05:58;6.38;;;2.33;;
74894;SDS011;63447;49.446;8.666;2023-07-13T05:08:25;4.90;;;1.77;;
74894;SDS011;63447;49.446;8.666;2023-07-13T05:10:53;3.90;;;1.50;;
74894;SDS011;63447;49.446;8.666;2023-07-13T05:13:20;4.78;;;1.80;;
74894;SDS011;63447;49.446;8.666;2023-07-13T05:15:47;4.18;;;1.63;;
74894;SDS011;63447;49.446;8.666;2023-07-13T05:18:22;5.72;;;1.52;;
74894;SDS011;63447;49.446;8.666;2023-07-13T05:20:54;5.82;;;1.58;;
74894;SDS011;63447;49.446;8.666;2023-07-13T05:23:22;6.63;;;1.70;;
74894;SDS011;63447;49.446;8.666;2023-07-13T05:25:49;8.65;;;2.00;;
74894;SDS011;63447;49.446;8.666;2023-07-13T05:28:15;8.60;;;2.10;;
74894;SDS011;63447;49.446;8.666;2023-07-13T05:30:44;4.70;;;1.90;;
74894;SDS011;63447;49.446;8.666;2023-07-13T05:33:13;5.70;;;1.70;;
74894;SDS011;63447;49.446;8.666;2023-07-13T05:35:38;4.55;;;1.67;;
74894;SDS011;63447;49.446;8.666;2023-07-13T05:38:04;4.32;;;1.75;;
74894;SDS011;63447;49.446;8.666;2023-07-13T05:40:32;5.50;;;2.03;;
74894;SDS011;63447;49.446;8.666;2023-07-13T05:42:59;5.30;;;1.80;;
74894;SDS011;63447;49.446;8.666;2023-07-13T05:45:25;5.50;;;1.77;;
74894;SDS011;63447;49.446;8.666;2023-07-13T05:47:51;4.68;;;1.63;;
74894;SDS011;63447;49.446;8.666;2023-07-13T05:50:18;5.22;;;1.73;;
74894;SDS011;63447;49.446;8.666;2023-07-13T05:52:44;4.88;;;1.70;;
74894;SDS011;63447;49.446;8.666;2023-07-13T05:55:09;5.80;;;1.80;;
74894;SDS011;63447;49.446;8.666;2023-07-13T05:57:39;5.38;;;1.88;;
74894;SDS011;63447;49.446;8.666;2023-07-13T06:00:04;5.57;;;1.80;;
74894;SDS011;63447;49.446;8.666;2023-07-13T06:02:30;4.97;;;1.95;;
74894;SDS011;63447;49.446;8.666;2023-07-13T06:05:02;5.38;;;1.85;;
74894;SDS011;63447;49.446;8.666;2023-07-13T06:07:28;5.40;;;1.88;;
74894;SDS011;63447;49.446;8.666;2023-07-13T06:09:53;5.67;;;1.63;;
74894;SDS011;63447;49.446;8.666;2023-07-13T06:12:19;6.80;;;1.70;;
74894;SDS011;63447;49.446;8.666;2023-07-13T06:14:44;6.70;;;1.80;;
74894;SDS011;63447;49.446;8.666;2023-07-13T06:17:09;6.50;;;2.03;;
74894;SDS011;63447;49.446;8.666;2023-07-13T06:19:37;4.97;;;1.90;;
74894;SDS011;63447;49.446;8.666;2023-07-13T06:22:05;4.82;;;1.60;;
74894;SDS011;63447;49.446;8.666;2023-07-13T06:24:30;4.82;;;1.70;;
74894;SDS011;63447;49.446;8.666;2023-07-13T06:26:56;5.47;;;1.70;;
74894;SDS011;63447;49.446;8.666;2023-07-13T06:29:23;4.32;;;1.77;;
74894;SDS011;63447;49.446;8.666;2023-07-13T06:31:48;6.47;;;2.10;;
74894;SDS011;63447;49.446;8.666;2023-07-13T06:34:14;8.93;;;2.03;;
74894;SDS011;63447;49.446;8.666;2023-07-13T06:36:41;5.63;;;1.60;;
74894;SDS011;63447;49.446;8.666;2023-07-13T06:39:07;6.60;;;2.08;;
74894;SDS011;63447;49.446;8.666;2023-07-13T06:41:34;5.32;;;1.92;;
74894;SDS011;63447;49.446;8.666;2023-07-13T06:44:00;6.47;;;1.80;;
74894;SDS011;63447;49.446;8.666;2023-07-13T06:46:28;5.55;;;1.63;;
74894;SDS011;63447;49.446;8.666;2023-07-13T06:48:58;6.45;;;1.80;;
74894;SDS011;63447;49.446;8.666;2023-07-13T06:51:23;5.43;;;1.63;;
74894;SDS011;63447;49.446;8.666;2023-07-13T06:53:51;4.88;;;1.85;;
74894;SDS011;63447;49.446;8.666;2023-07-13T06:56:16;5.00;;;1.60;;
74894;SDS011;63447;49.446;8.666;2023-07-13T06:58:42;4.72;;;1.63;;
74894;SDS011;63447;49.446;8.666;2023-07-13T07:01:07;5.47;;;1.73;;
74894;SDS011;63447;49.446;8.666;2023-07-13T07:03:33;5.22;;;1.90;;
74894;SDS011;63447;49.446;8.666;2023-07-13T07:06:18;5.93;;;1.87;;
74894;SDS011;63447;49.446;8.666;2023-07-13T07:08:48;4.03;;;1.35;;
74894;SDS011;63447;49.446;8.666;2023-07-13T07:11:17;4.45;;;1.50;;
74894;SDS011;63447;49.446;8.666;2023-07-13T07:13:49;5.95;;;1.65;;
74894;SDS011;63447;49.446;8.666;2023-07-13T07:16:16;3.97;;;1.20;;
74894;SDS011;63447;49.446;8.666;2023-07-13T07:18:41;4.70;;;1.30;;
74894;SDS011;63447;49.446;8.666;2023-07-13T07:21:07;5.07;;;1.50;;
74894;SDS011;63447;49.446;8.666;2023-07-13T07:23:34;6.22;;;1.35;;
74894;SDS011;63447;49.446;8.666;2023-07-13T07:26:00;3.40;;;1.20;;
74894;SDS011;63447;49.446;8.666;2023-07-13T07:28:26;4.90;;;1.40;;
74894;SDS011;63447;49.446;8.666;2023-07-13T07:30:53;4.35;;;1.40;;
74894;SDS011;63447;49.446;8.666;2023-07-13T07:33:20;5.53;;;1.70;;
74894;SDS011;63447;49.446;8.666;2023-07-13T07:35:45;4.85;;;1.40;;
74894;SDS011;63447;49.446;8.666;2023-07-13T07:38:10;5.72;;;1.50;;
74894;SDS011;63447;49.446;8.666;2023-07-13T07:40:37;3.40;;;1.20;;
74894;SDS011;63447;49.446;8.666;2023-07-13T07:43:03;4.85;;;1.45;;
74894;SDS011;63447;49.446;8.666;2023-07-13T07:45:33;4.05;;;1.20;;
74894;SDS011;63447;49.446;8.666;2023-07-13T07:47:59;5.30;;;1.23;;
74894;SDS011;63447;49.446;8.666;2023-07-13T07:50:27;4.03;;;1.10;;
74894;SDS011;63447;49.446;8.666;2023-07-13T07:52:53;5.13;;;1.40;;
74894;SDS011;63447;49.446;8.666;2023-07-13T07:55:21;4.45;;;1.30;;
74894;SDS011;63447;49.446;8.666;2023-07-13T07:57:46;4.68;;;1.23;;
74894;SDS011;63447;49.446;8.666;2023-07-13T08:00:12;4.53;;;1.30;;
74894;SDS011;63447;49.446;8.666;2023-07-13T08:02:38;5.88;;;1.10;;
74894;SDS011;63447;49.446;8.666;2023-07-13T08:05:03;3.93;;;1.33;;
74894;SDS011;63447;49.446;8.666;2023-07-13T08:07:31;4.60;;;1.20;;
74894;SDS011;63447;49.446;8.666;2023-07-13T08:09:57;5.63;;;1.35;;
74894;SDS011;63447;49.446;8.666;2023-07-13T08:12:22;6.77;;;1.47;;
74894;SDS011;63447;49.446;8.666;2023-07-13T08:14:51;5.53;;;1.42;;
74894;SDS011;63447;49.446;8.666;2023-07-13T08:17:22;6.97;;;1.75;;
74894;SDS011;63447;49.446;8.666;2023-07-13T08:19:48;5.45;;;1.45;;
74894;SDS011;63447;49.446;8.666;2023-07-13T08:22:13;3.75;;;1.05;;
74894;SDS011;63447;49.446;8.666;2023-07-13T08:24:38;8.27;;;1.50;;
74894;SDS011;63447;49.446;8.666;2023-07-13T08:27:04;5.88;;;1.83;;
74894;SDS011;63447;49.446;8.666;2023-07-13T08:29:29;6.30;;;1.20;;
74894;SDS011;63447;49.446;8.666;2023-07-13T08:31:57;6.13;;;1.30;;
74894;SDS011;63447;49.446;8.666;2023-07-13T08:34:23;5.00;;;1.50;;
74894;SDS011;63447;49.446;8.666;2023-07-13T08:36:50;4.63;;;1.20;;
74894;SDS011;63447;49.446;8.666;2023-07-13T08:40:07;6.32;;;1.58;;
74894;SDS011;63447;49.446;8.666;2023-07-13T08:47:40;6.72;;;2.05;;
74894;SDS011;63447;49.446;8.666;2023-07-13T08:50:19;5.28;;;1.48;;
74894;SDS011;63447;49.446;8.666;2023-07-13T08:52:51;4.55;;;1.27;;
74894;SDS011;63447;49.446;8.666;2023-07-13T08:57:54;5.00;;;1.50;;
74894;SDS011;63447;49.446;8.666;2023-07-13T09:00:34;5.35;;;1.23;;
74894;SDS011;63447;49.446;8.666;2023-07-13T09:03:18;5.90;;;1.60;;
74894;SDS011;63447;49.446;8.666;2023-07-13T09:05:53;5.05;;;1.60;;
74894;SDS011;63447;49.446;8.666;2023-07-13T09:08:27;4.78;;;1.52;;
74894;SDS011;63447;49.446;8.666;2023-07-13T09:11:08;4.40;;;1.60;;
74894;SDS011;63447;49.446;8.666;2023-07-13T09:13:54;7.03;;;1.55;;
74894;SDS011;63447;49.446;8.666;2023-07-13T09:16:28;6.55;;;1.70;;
74894;SDS011;63447;49.446;8.666;2023-07-13T09:18:56;5.38;;;1.20;;
74894;SDS011;63447;49.446;8.666;2023-07-13T09:21:37;3.38;;;1.10;;
74894;SDS011;63447;49.446;8.666;2023-07-13T09:27:09;5.07;;;1.38;;
74894;SDS011;63447;49.446;8.666;2023-07-13T09:32:10;7.88;;;1.60;;
74894;SDS011;63447;49.446;8.666;2023-07-13T09:34:45;4.47;;;1.25;;
74894;SDS011;63447;49.446;8.666;2023-07-13T09:37:16;6.47;;;1.40;;
74894;SDS011;63447;49.446;8.666;2023-07-13T09:39:41;5.77;;;1.40;;
74894;SDS011;63447;49.446;8.666;2023-07-13T09:44:50;4.60;;;1.30;;
74894;SDS011;63447;49.446;8.666;2023-07-13T09:47:17;4.68;;;1.40;;
74894;SDS011;63447;49.446;8.666;2023-07-13T09:52:25;5.97;;;1.38;;
74894;SDS011;63447;49.446;8.666;2023-07-13T09:54:55;5.53;;;2.00;;
74894;SDS011;63447;49.446;8.666;2023-07-13T09:57:24;4.82;;;1.30;;
74894;SDS011;63447;49.446;8.666;2023-07-13T09:59:52;5.72;;;1.23;;
74894;SDS011;63447;49.446;8.666;2023-07-13T10:05:02;4.53;;;1.33;;
74894;SDS011;63447;49.446;8.666;2023-07-13T10:07:30;4.53;;;1.40;;
74894;SDS011;63447;49.446;8.666;2023-07-13T10:09:57;6.68;;;1.70;;
74894;SDS011;63447;49.446;8.666;2023-07-13T10:12:26;6.20;;;2.63;;
74894;SDS011;63447;49.446;8.666;2023-07-13T10:14:53;6.25;;;1.60;;
74894;SDS011;63447;49.446;8.666;2023-07-13T10:17:26;5.43;;;1.42;;
74894;SDS011;63447;49.446;8.666;2023-07-13T10:20:01;4.80;;;1.33;;
74894;SDS011;63447;49.446;8.666;2023-07-13T10:25:25;4.75;;;1.30;;
74894;SDS011;63447;49.446;8.666;2023-07-13T10:27:53;6.07;;;1.23;;
74894;SDS011;63447;49.446;8.666;2023-07-13T10:30:33;3.92;;;1.35;;
74894;SDS011;63447;49.446;8.666;2023-07-13T10:33:10;4.60;;;1.42;;
74894;SDS011;63447;49.446;8.666;2023-07-13T10:35:36;5.97;;;1.50;;
74894;SDS011;63447;49.446;8.666;2023-07-13T10:38:10;5.20;;;1.40;;
74894;SDS011;63447;49.446;8.666;2023-07-13T10:43:28;6.20;;;1.40;;
74894;SDS011;63447;49.446;8.666;2023-07-13T10:48:31;4.45;;;1.20;;
74894;SDS011;63447;49.446;8.666;2023-07-13T10:50:59;5.65;;;1.20;;
74894;SDS011;63447;49.446;8.666;2023-07-13T10:55:58;6.60;;;1.33;;
74894;SDS011;63447;49.446;8.666;2023-07-13T10:58:37;4.80;;;1.30;;
74894;SDS011;63447;49.446;8.666;2023-07-13T11:03:47;3.38;;;1.10;;
74894;SDS011;63447;49.446;8.666;2023-07-13T11:13:59;4.93;;;1.27;;
74894;SDS011;63447;49.446;8.666;2023-07-13T11:16:48;4.65;;;1.13;;
74894;SDS011;63447;49.446;8.666;2023-07-13T11:27:22;4.25;;;1.00;;
74894;SDS011;63447;49.446;8.666;2023-07-13T11:29:48;5.57;;;1.17;;
74894;SDS011;63447;49.446;8.666;2023-07-13T11:32:25;4.30;;;1.20;;
74894;SDS011;63447;49.446;8.666;2023-07-13T11:34:55;5.15;;;1.02;;
74894;SDS011;63447;49.446;8.666;2023-07-13T11:37:24;5.00;;;1.10;;
74894;SDS011;63447;49.446;8.666;2023-07-13T11:39:50;4.20;;;1.00;;
74894;SDS011;63447;49.446;8.666;2023-07-13T11:42:17;5.82;;;1.10;;
74894;SDS011;63447;49.446;8.666;2023-07-13T11:44:49;4.07;;;1.10;;
74894;SDS011;63447;49.446;8.666;2023-07-13T11:47:20;4.82;;;1.40;;
74894;SDS011;63447;49.446;8.666;2023-07-13T11:49:51;4.28;;;1.25;;
74894;SDS011;63447;49.446;8.666;2023-07-13T11:52:31;3.67;;;1.00;;
74894;SDS011;63447;49.446;8.666;2023-07-13T11:55:00;3.25;;;1.10;;
74894;SDS011;63447;49.446;8.666;2023-07-13T11:57:30;6.55;;;1.48;;
74894;SDS011;63447;49.446;8.666;2023-07-13T11:59:59;4.15;;;1.08;;
74894;SDS011;63447;49.446;8.666;2023-07-13T12:02:30;3.83;;;0.90;;
74894;SDS011;63447;49.446;8.666;2023-07-13T12:05:01;3.65;;;1.02;;
74894;SDS011;63447;49.446;8.666;2023-07-13T12:07:32;5.57;;;1.15;;
74894;SDS011;63447;49.446;8.666;2023-07-13T12:10:02;3.83;;;1.10;;
74894;SDS011;63447;49.446;8.666;2023-07-13T12:12:53;5.55;;;1.30;;
74894;SDS011;63447;49.446;8.666;2023-07-13T12:15:22;6.82;;;1.30;;
74894;SDS011;63447;49.446;8.666;2023-07-13T12:17:52;4.55;;;1.02;;
74894;SDS011;63447;49.446;8.666;2023-07-13T12:20:25;4.50;;;1.25;;
74894;SDS011;63447;49.446;8.666;2023-07-13T12:25:20;4.55;;;0.98;;
74894;SDS011;63447;49.446;8.666;2023-07-13T12:27:48;3.92;;;0.98;;
74894;SDS011;63447;49.446;8.666;2023-07-13T12:30:31;5.28;;;1.20;;
74894;SDS011;63447;49.446;8.666;2023-07-13T12:33:24;3.97;;;1.02;;
74894;SDS011;63447;49.446;8.666;2023-07-13T12:35:53;4.13;;;1.15;;
74894;SDS011;63447;49.446;8.666;2023-07-13T12:38:18;3.30;;;0.97;;
74894;SDS011;63447;49.446;8.666;2023-07-13T12:40:46;4.07;;;1.23;;
74894;SDS011;63447;49.446;8.666;2023-07-13T12:43:20;3.90;;;0.98;;
74894;SDS011;63447;49.446;8.666;2023-07-13T12:45:57;3.20;;;1.10;;
74894;SDS011;63447;49.446;8.666;2023-07-13T12:48:43;5.15;;;1.08;;
74894;SDS011;63447;49.446;8.666;2023-07-13T12:51:11;4.93;;;1.30;;
74894;SDS011;63447;49.446;8.666;2023-07-13T12:53:39;4.38;;;1.17;;
74894;SDS011;63447;49.446;8.666;2023-07-13T12:56:09;5.80;;;1.38;;
74894;SDS011;63447;49.446;8.666;2023-07-13T12:58:48;4.28;;;1.15;;
74894;SDS011;63447;49.446;8.666;2023-07-13T13:01:19;5.05;;;1.10;;
74894;SDS011;63447;49.446;8.666;2023-07-13T13:03:48;4.20;;;1.40;;
74894;SDS011;63447;49.446;8.666;2023-07-13T13:08:45;4.38;;;1.13;;
74894;SDS011;63447;49.446;8.666;2023-07-13T13:11:31;4.95;;;1.40;;
74894;SDS011;63447;49.446;8.666;2023-07-13T13:13:59;3.67;;;1.08;;
74894;SDS011;63447;49.446;8.666;2023-07-13T13:16:30;4.70;;;1.30;;
74894;SDS011;63447;49.446;8.666;2023-07-13T13:19:02;4.65;;;1.38;;
74894;SDS011;63447;49.446;8.666;2023-07-13T13:21:42;4.88;;;1.17;;
74894;SDS011;63447;49.446;8.666;2023-07-13T13:24:30;4.15;;;1.20;;
74894;SDS011;63447;49.446;8.666;2023-07-13T13:26:54;3.53;;;1.00;;
74894;SDS011;63447;49.446;8.666;2023-07-13T13:29:22;3.88;;;1.10;;
74894;SDS011;63447;49.446;8.666;2023-07-13T13:31:49;3.97;;;0.85;;
74894;SDS011;63447;49.446;8.666;2023-07-13T13:34:18;3.97;;;1.00;;
74894;SDS011;63447;49.446;8.666;2023-07-13T13:36:49;4.50;;;1.20;;
74894;SDS011;63447;49.446;8.666;2023-07-13T13:39:24;3.95;;;1.20;;
74894;SDS011;63447;49.446;8.666;2023-07-13T13:41:52;4.75;;;1.38;;
74894;SDS011;63447;49.446;8.666;2023-07-13T13:44:21;4.68;;;1.20;;
74894;SDS011;63447;49.446;8.666;2023-07-13T13:46:49;3.40;;;1.10;;
74894;SDS011;63447;49.446;8.666;2023-07-13T13:49:23;3.90;;;1.10;;
74894;SDS011;63447;49.446;8.666;2023-07-13T13:51:50;4.53;;;1.38;;
74894;SDS011;63447;49.446;8.666;2023-07-13T13:54:17;5.50;;;1.27;;
74894;SDS011;63447;49.446;8.666;2023-07-13T13:56:43;4.03;;;1.13;;
74894;SDS011;63447;49.446;8.666;2023-07-13T13:59:10;5.00;;;1.23;;
74894;SDS011;63447;49.446;8.666;2023-07-13T14:01:36;4.45;;;1.30;;
74894;SDS011;63447;49.446;8.666;2023-07-13T14:04:02;4.43;;;1.30;;
74894;SDS011;63447;49.446;8.666;2023-07-13T14:06:28;3.17;;;0.95;;
74894;SDS011;63447;49.446;8.666;2023-07-13T14:08:54;3.42;;;1.10;;
74894;SDS011;63447;49.446;8.666;2023-07-13T14:11:22;3.90;;;1.25;;
74894;SDS011;63447;49.446;8.666;2023-07-13T14:13:49;3.20;;;1.15;;
74894;SDS011;63447;49.446;8.666;2023-07-13T14:16:19;4.07;;;1.23;;
74894;SDS011;63447;49.446;8.666;2023-07-13T14:18:49;4.35;;;1.13;;
74894;SDS011;63447;49.446;8.666;2023-07-13T14:21:18;4.13;;;1.02;;
74894;SDS011;63447;49.446;8.666;2023-07-13T14:23:45;4.45;;;1.13;;
74894;SDS011;63447;49.446;8.666;2023-07-13T14:26:17;7.32;;;1.20;;
74894;SDS011;63447;49.446;8.666;2023-07-13T14:28:49;3.67;;;1.15;;
74894;SDS011;63447;49.446;8.666;2023-07-13T14:31:19;5.00;;;1.30;;
74894;SDS011;63447;49.446;8.666;2023-07-13T14:33:46;4.75;;;1.17;;
74894;SDS011;63447;49.446;8.666;2023-07-13T14:38:54;3.47;;;1.08;;
74894;SDS011;63447;49.446;8.666;2023-07-13T14:41:22;4.00;;;1.10;;
74894;SDS011;63447;49.446;8.666;2023-07-13T14:43:48;5.63;;;1.20;;
74894;SDS011;63447;49.446;8.666;2023-07-13T14:46:32;5.90;;;1.38;;
74894;SDS011;63447;49.446;8.666;2023-07-13T14:49:01;3.72;;;1.10;;
74894;SDS011;63447;49.446;8.666;2023-07-13T14:51:30;4.88;;;1.30;;
74894;SDS011;63447;49.446;8.666;2023-07-13T14:53:56;4.10;;;1.23;;
74894;SDS011;63447;49.446;8.666;2023-07-13T14:56:24;4.57;;;1.00;;
74894;SDS011;63447;49.446;8.666;2023-07-13T14:58:52;5.00;;;1.23;;
74894;SDS011;63447;49.446;8.666;2023-07-13T15:01:18;3.17;;;1.13;;
74894;SDS011;63447;49.446;8.666;2023-07-13T15:03:44;6.65;;;1.15;;
74894;SDS011;63447;49.446;8.666;2023-07-13T15:06:13;4.30;;;1.25;;
74894;SDS011;63447;49.446;8.666;2023-07-13T15:08:39;4.60;;;1.30;;
74894;SDS011;63447;49.446;8.666;2023-07-13T15:11:10;5.03;;;1.30;;
74894;SDS011;63447;49.446;8.666;2023-07-13T15:13:39;4.75;;;1.30;;
74894;SDS011;63447;49.446;8.666;2023-07-13T15:16:15;4.95;;;1.27;;
74894;SDS011;63447;49.446;8.666;2023-07-13T15:18:44;4.47;;;1.30;;
74894;SDS011;63447;49.446;8.666;2023-07-13T15:21:23;4.00;;;1.23;;
74894;SDS011;63447;49.446;8.666;2023-07-13T15:23:49;5.93;;;1.30;;
74894;SDS011;63447;49.446;8.666;2023-07-13T15:26:19;3.95;;;1.20;;
74894;SDS011;63447;49.446;8.666;2023-07-13T15:28:44;3.97;;;1.30;;
74894;SDS011;63447;49.446;8.666;2023-07-13T15:31:24;5.25;;;1.15;;
74894;SDS011;63447;49.446;8.666;2023-07-13T15:33:53;4.50;;;1.10;;
74894;SDS011;63447;49.446;8.666;2023-07-13T15:36:22;4.18;;;1.15;;
74894;SDS011;63447;49.446;8.666;2023-07-13T15:38:48;4.65;;;1.10;;
74894;SDS011;63447;49.446;8.666;2023-07-13T15:43:47;7.38;;;1.20;;
74894;SDS011;63447;49.446;8.666;2023-07-13T15:46:22;5.50;;;1.30;;
74894;SDS011;63447;49.446;8.666;2023-07-13T15:48:48;3.78;;;1.30;;
74894;SDS011;63447;49.446;8.666;2023-07-13T15:53:48;4.35;;;1.10;;
74894;SDS011;63447;49.446;8.666;2023-07-13T15:58:44;4.75;;;1.30;;
74894;SDS011;63447;49.446;8.666;2023-07-13T16:01:10;4.72;;;1.30;;
74894;SDS011;63447;49.446;8.666;2023-07-13T16:03:38;4.18;;;1.17;;